sensor_id;sensor_type;location;lat;lon;timestamp;temperature;humidity
17851;DHT22;9051;51.548;14.348;2022-09-17T00:01:02;12.70;99.90
17851;DHT22;9051;51.548;14.348;2022-09-17T00:03:34;12.70;99.90
17851;DHT22;9051;51.548;14.348;2022-09-17T00:06:10;12.60;99.90
17851;DHT22;9051;51.548;14.348;2022-09-17T00:08:42;12.70;99.90
17851;DHT22;9051;51.548;14.348;2022-09-17T00:11:17;12.60;99.90
17851;DHT22;9051;51.548;14.348;2022-09-17T00:13:52;12.60;99.90
17851;DHT22;9051;51.548;14.348;2022-09-17T00:16:27;12.50;99.90
17851;DHT22;9051;51.548;14.348;2022-09-17T00:19:01;12.50;99.90
17851;DHT22;9051;51.548;14.348;2022-09-17T00:21:35;12.50;99.90
17851;DHT22;9051;51.548;14.348;2022-09-17T00:24:08;12.50;99.90
17851;DHT22;9051;51.548;14.348;2022-09-17T00:26:41;12.50;99.90
17851;DHT22;9051;51.548;14.348;2022-09-17T00:29:14;12.50;99.90
17851;DHT22;9051;51.548;14.348;2022-09-17T00:31:46;12.50;99.90
17851;DHT22;9051;51.548;14.348;2022-09-17T00:34:18;12.50;99.90
17851;DHT22;9051;51.548;14.348;2022-09-17T00:36:51;12.40;99.90
17851;DHT22;9051;51.548;14.348;2022-09-17T00:39:23;12.50;99.90
17851;DHT22;9051;51.548;14.348;2022-09-17T00:41:56;12.50;99.90
17851;DHT22;9051;51.548;14.348;2022-09-17T00:44:43;12.50;99.90
17851;DHT22;9051;51.548;14.348;2022-09-17T00:47:21;12.40;99.90
17851;DHT22;9051;51.548;14.348;2022-09-17T00:50:00;12.40;99.90
17851;DHT22;9051;51.548;14.348;2022-09-17T00:52:40;12.40;99.90
17851;DHT22;9051;51.548;14.348;2022-09-17T00:55:18;12.40;99.90
17851;DHT22;9051;51.548;14.348;2022-09-17T00:57:54;12.40;99.90
17851;DHT22;9051;51.548;14.348;2022-09-17T01:00:28;12.40;99.90
17851;DHT22;9051;51.548;14.348;2022-09-17T01:03:01;12.30;99.90
17851;DHT22;9051;51.548;14.348;2022-09-17T01:05:41;12.30;99.90
17851;DHT22;9051;51.548;14.348;2022-09-17T01:08:24;12.30;99.90
17851;DHT22;9051;51.548;14.348;2022-09-17T01:11:11;12.30;99.90
17851;DHT22;9051;51.548;14.348;2022-09-17T01:13:55;12.40;99.90
17851;DHT22;9051;51.548;14.348;2022-09-17T01:16:33;12.30;99.90
17851;DHT22;9051;51.548;14.348;2022-09-17T01:19:22;12.30;99.90
17851;DHT22;9051;51.548;14.348;2022-09-17T01:22:02;12.30;99.90
17851;DHT22;9051;51.548;14.348;2022-09-17T01:24:48;12.20;99.90
17851;DHT22;9051;51.548;14.348;2022-09-17T01:30:57;12.10;99.90
17851;DHT22;9051;51.548;14.348;2022-09-17T01:33:38;12.10;99.90
17851;DHT22;9051;51.548;14.348;2022-09-17T01:36:38;12.10;99.90
17851;DHT22;9051;51.548;14.348;2022-09-17T01:39:24;12.10;99.90
17851;DHT22;9051;51.548;14.348;2022-09-17T01:42:06;12.10;99.90
17851;DHT22;9051;51.548;14.348;2022-09-17T01:44:48;12.10;99.90
17851;DHT22;9051;51.548;14.348;2022-09-17T01:47:26;12.10;99.90
17851;DHT22;9051;51.548;14.348;2022-09-17T01:50:04;12.10;99.90
17851;DHT22;9051;51.548;14.348;2022-09-17T01:52:39;12.00;99.90
17851;DHT22;9051;51.548;14.348;2022-09-17T01:55:14;12.00;99.90
17851;DHT22;9051;51.548;14.348;2022-09-17T01:57:55;12.00;99.90
17851;DHT22;9051;51.548;14.348;2022-09-17T02:00:29;12.10;99.90
17851;DHT22;9051;51.548;14.348;2022-09-17T02:03:06;12.10;99.90
17851;DHT22;9051;51.548;14.348;2022-09-17T02:05:40;12.10;99.90
17851;DHT22;9051;51.548;14.348;2022-09-17T02:08:17;12.10;99.90
17851;DHT22;9051;51.548;14.348;2022-09-17T02:10:54;12.10;99.90
17851;DHT22;9051;51.548;14.348;2022-09-17T02:13:32;12.20;99.90
17851;DHT22;9051;51.548;14.348;2022-09-17T02:16:09;12.20;99.90
17851;DHT22;9051;51.548;14.348;2022-09-17T02:18:49;12.20;99.90
17851;DHT22;9051;51.548;14.348;2022-09-17T02:21:30;12.30;99.90
17851;DHT22;9051;51.548;14.348;2022-09-17T02:24:09;12.20;99.90
17851;DHT22;9051;51.548;14.348;2022-09-17T02:26:47;12.20;99.90
17851;DHT22;9051;51.548;14.348;2022-09-17T02:29:25;12.20;99.90
17851;DHT22;9051;51.548;14.348;2022-09-17T02:31:58;12.20;99.90
17851;DHT22;9051;51.548;14.348;2022-09-17T02:34:32;12.20;99.90
17851;DHT22;9051;51.548;14.348;2022-09-17T02:37:06;12.20;99.90
17851;DHT22;9051;51.548;14.348;2022-09-17T02:39:38;12.30;99.90
17851;DHT22;9051;51.548;14.348;2022-09-17T02:42:18;12.20;99.90
17851;DHT22;9051;51.548;14.348;2022-09-17T02:44:59;12.20;99.90
17851;DHT22;9051;51.548;14.348;2022-09-17T02:47:45;12.10;99.90
17851;DHT22;9051;51.548;14.348;2022-09-17T02:50:29;12.20;99.90
17851;DHT22;9051;51.548;14.348;2022-09-17T02:53:18;12.20;99.90
17851;DHT22;9051;51.548;14.348;2022-09-17T02:56:01;12.10;99.90
17851;DHT22;9051;51.548;14.348;2022-09-17T02:58:42;12.20;99.90
17851;DHT22;9051;51.548;14.348;2022-09-17T03:01:21;12.20;99.90
17851;DHT22;9051;51.548;14.348;2022-09-17T03:03:55;12.20;99.90
17851;DHT22;9051;51.548;14.348;2022-09-17T03:06:31;12.20;99.90
17851;DHT22;9051;51.548;14.348;2022-09-17T03:09:03;12.20;99.90
17851;DHT22;9051;51.548;14.348;2022-09-17T03:11:36;12.10;99.90
17851;DHT22;9051;51.548;14.348;2022-09-17T03:17:44;12.10;99.90
17851;DHT22;9051;51.548;14.348;2022-09-17T03:20:16;12.10;99.90
17851;DHT22;9051;51.548;14.348;2022-09-17T03:22:50;12.10;99.90
17851;DHT22;9051;51.548;14.348;2022-09-17T03:25:22;12.20;99.90
17851;DHT22;9051;51.548;14.348;2022-09-17T03:27:54;12.20;99.90
17851;DHT22;9051;51.548;14.348;2022-09-17T03:30:26;12.20;99.90
17851;DHT22;9051;51.548;14.348;2022-09-17T03:32:58;12.20;99.90
17851;DHT22;9051;51.548;14.348;2022-09-17T03:35:33;12.20;99.90
17851;DHT22;9051;51.548;14.348;2022-09-17T03:38:06;12.20;99.90
17851;DHT22;9051;51.548;14.348;2022-09-17T03:40:40;12.30;99.90
17851;DHT22;9051;51.548;14.348;2022-09-17T03:43:12;12.30;99.90
17851;DHT22;9051;51.548;14.348;2022-09-17T03:45:44;12.20;99.90
17851;DHT22;9051;51.548;14.348;2022-09-17T03:48:17;12.30;99.90
17851;DHT22;9051;51.548;14.348;2022-09-17T03:50:51;12.30;99.90
17851;DHT22;9051;51.548;14.348;2022-09-17T03:53:24;12.20;99.90
17851;DHT22;9051;51.548;14.348;2022-09-17T03:55:57;12.30;99.90
17851;DHT22;9051;51.548;14.348;2022-09-17T03:58:30;12.30;99.90
17851;DHT22;9051;51.548;14.348;2022-09-17T04:01:02;12.30;99.90
17851;DHT22;9051;51.548;14.348;2022-09-17T04:03:34;12.30;99.90
17851;DHT22;9051;51.548;14.348;2022-09-17T04:06:06;12.30;99.90
17851;DHT22;9051;51.548;14.348;2022-09-17T04:08:40;12.20;99.90
17851;DHT22;9051;51.548;14.348;2022-09-17T04:11:13;12.20;99.90
17851;DHT22;9051;51.548;14.348;2022-09-17T04:13:45;12.20;99.90
17851;DHT22;9051;51.548;14.348;2022-09-17T04:16:17;12.20;99.90
17851;DHT22;9051;51.548;14.348;2022-09-17T04:18:49;12.20;99.90
17851;DHT22;9051;51.548;14.348;2022-09-17T04:21:21;12.20;99.90
17851;DHT22;9051;51.548;14.348;2022-09-17T04:23:54;12.10;99.90
17851;DHT22;9051;51.548;14.348;2022-09-17T04:26:27;12.10;99.90
17851;DHT22;9051;51.548;14.348;2022-09-17T04:28:59;12.10;99.90
17851;DHT22;9051;51.548;14.348;2022-09-17T04:31:31;12.20;99.90
17851;DHT22;9051;51.548;14.348;2022-09-17T04:34:04;12.10;99.90
17851;DHT22;9051;51.548;14.348;2022-09-17T04:36:36;12.10;99.90
17851;DHT22;9051;51.548;14.348;2022-09-17T04:39:09;12.10;99.90
17851;DHT22;9051;51.548;14.348;2022-09-17T04:41:42;12.10;99.90
17851;DHT22;9051;51.548;14.348;2022-09-17T04:44:15;12.10;99.90
17851;DHT22;9051;51.548;14.348;2022-09-17T04:46:48;12.10;99.90
17851;DHT22;9051;51.548;14.348;2022-09-17T04:49:20;12.10;99.90
17851;DHT22;9051;51.548;14.348;2022-09-17T04:51:52;12.10;99.90
17851;DHT22;9051;51.548;14.348;2022-09-17T04:54:25;12.10;99.90
17851;DHT22;9051;51.548;14.348;2022-09-17T04:56:58;12.10;99.90
17851;DHT22;9051;51.548;14.348;2022-09-17T04:59:30;12.10;99.90
17851;DHT22;9051;51.548;14.348;2022-09-17T05:02:02;12.00;99.90
17851;DHT22;9051;51.548;14.348;2022-09-17T05:04:35;12.00;99.90
17851;DHT22;9051;51.548;14.348;2022-09-17T05:07:07;12.00;99.90
17851;DHT22;9051;51.548;14.348;2022-09-17T05:09:42;12.00;99.90
17851;DHT22;9051;51.548;14.348;2022-09-17T05:12:14;12.00;99.90
17851;DHT22;9051;51.548;14.348;2022-09-17T05:14:46;12.00;99.90
17851;DHT22;9051;51.548;14.348;2022-09-17T05:17:18;11.90;99.90
17851;DHT22;9051;51.548;14.348;2022-09-17T05:19:50;11.90;99.90
17851;DHT22;9051;51.548;14.348;2022-09-17T05:22:22;11.90;99.90
17851;DHT22;9051;51.548;14.348;2022-09-17T05:24:56;11.80;99.90
17851;DHT22;9051;51.548;14.348;2022-09-17T05:27:27;11.90;99.90
17851;DHT22;9051;51.548;14.348;2022-09-17T05:29:59;11.90;99.90
17851;DHT22;9051;51.548;14.348;2022-09-17T05:32:33;11.80;99.90
17851;DHT22;9051;51.548;14.348;2022-09-17T05:35:06;11.90;99.90
17851;DHT22;9051;51.548;14.348;2022-09-17T05:37:39;11.90;99.90
17851;DHT22;9051;51.548;14.348;2022-09-17T05:40:12;11.90;99.90
17851;DHT22;9051;51.548;14.348;2022-09-17T05:42:44;11.90;99.90
17851;DHT22;9051;51.548;14.348;2022-09-17T05:45:16;11.80;99.90
17851;DHT22;9051;51.548;14.348;2022-09-17T05:47:53;11.80;99.90
17851;DHT22;9051;51.548;14.348;2022-09-17T05:50:26;11.80;99.90
17851;DHT22;9051;51.548;14.348;2022-09-17T05:53:04;11.80;99.90
17851;DHT22;9051;51.548;14.348;2022-09-17T06:03:22;11.70;99.90
17851;DHT22;9051;51.548;14.348;2022-09-17T06:05:55;11.70;99.90
17851;DHT22;9051;51.548;14.348;2022-09-17T06:08:28;11.70;99.90
17851;DHT22;9051;51.548;14.348;2022-09-17T06:11:05;11.70;99.90
17851;DHT22;9051;51.548;14.348;2022-09-17T06:13:37;11.70;99.90
17851;DHT22;9051;51.548;14.348;2022-09-17T06:16:09;11.70;99.90
17851;DHT22;9051;51.548;14.348;2022-09-17T06:18:41;11.60;99.90
17851;DHT22;9051;51.548;14.348;2022-09-17T06:21:13;11.60;99.90
17851;DHT22;9051;51.548;14.348;2022-09-17T06:23:45;11.70;99.90
17851;DHT22;9051;51.548;14.348;2022-09-17T06:26:19;11.70;99.90
17851;DHT22;9051;51.548;14.348;2022-09-17T06:28:51;11.80;99.90
17851;DHT22;9051;51.548;14.348;2022-09-17T06:31:23;11.80;99.90
17851;DHT22;9051;51.548;14.348;2022-09-17T06:33:55;11.80;99.90
17851;DHT22;9051;51.548;14.348;2022-09-17T06:36:27;11.60;99.90
17851;DHT22;9051;51.548;14.348;2022-09-17T06:38:59;11.60;99.90
17851;DHT22;9051;51.548;14.348;2022-09-17T06:41:33;11.60;99.90
17851;DHT22;9051;51.548;14.348;2022-09-17T06:44:08;11.70;99.90
17851;DHT22;9051;51.548;14.348;2022-09-17T06:46:40;11.70;99.90
17851;DHT22;9051;51.548;14.348;2022-09-17T06:49:13;11.70;99.90
17851;DHT22;9051;51.548;14.348;2022-09-17T06:51:47;11.80;99.90
17851;DHT22;9051;51.548;14.348;2022-09-17T06:54:21;11.80;99.90
17851;DHT22;9051;51.548;14.348;2022-09-17T06:56:54;11.90;99.90
17851;DHT22;9051;51.548;14.348;2022-09-17T06:59:26;11.80;99.90
17851;DHT22;9051;51.548;14.348;2022-09-17T07:01:58;11.80;99.90
17851;DHT22;9051;51.548;14.348;2022-09-17T07:04:30;12.00;99.90
17851;DHT22;9051;51.548;14.348;2022-09-17T07:07:03;12.00;99.90
17851;DHT22;9051;51.548;14.348;2022-09-17T07:09:36;12.00;99.90
17851;DHT22;9051;51.548;14.348;2022-09-17T07:12:10;12.00;99.90
17851;DHT22;9051;51.548;14.348;2022-09-17T07:14:42;12.00;99.90
17851;DHT22;9051;51.548;14.348;2022-09-17T07:17:14;12.00;99.90
17851;DHT22;9051;51.548;14.348;2022-09-17T07:19:46;12.00;99.90
17851;DHT22;9051;51.548;14.348;2022-09-17T07:22:18;12.00;99.90
17851;DHT22;9051;51.548;14.348;2022-09-17T07:24:49;12.10;99.90
17851;DHT22;9051;51.548;14.348;2022-09-17T07:27:23;12.10;99.90
17851;DHT22;9051;51.548;14.348;2022-09-17T07:29:57;12.10;99.90
17851;DHT22;9051;51.548;14.348;2022-09-17T07:32:30;12.20;99.90
17851;DHT22;9051;51.548;14.348;2022-09-17T07:35:02;12.20;99.90
17851;DHT22;9051;51.548;14.348;2022-09-17T07:37:34;12.10;99.90
17851;DHT22;9051;51.548;14.348;2022-09-17T07:40:07;12.20;99.90
17851;DHT22;9051;51.548;14.348;2022-09-17T07:42:40;12.20;99.90
17851;DHT22;9051;51.548;14.348;2022-09-17T07:45:12;12.20;99.90
17851;DHT22;9051;51.548;14.348;2022-09-17T07:47:44;12.20;99.90
17851;DHT22;9051;51.548;14.348;2022-09-17T07:50:17;12.20;99.90
17851;DHT22;9051;51.548;14.348;2022-09-17T07:52:49;12.20;99.90
17851;DHT22;9051;51.548;14.348;2022-09-17T07:55:21;12.20;99.90
17851;DHT22;9051;51.548;14.348;2022-09-17T07:57:55;12.30;99.90
17851;DHT22;9051;51.548;14.348;2022-09-17T08:00:26;12.40;99.90
17851;DHT22;9051;51.548;14.348;2022-09-17T08:02:59;12.40;99.90
17851;DHT22;9051;51.548;14.348;2022-09-17T08:05:31;12.40;99.90
17851;DHT22;9051;51.548;14.348;2022-09-17T08:08:03;12.60;99.90
17851;DHT22;9051;51.548;14.348;2022-09-17T08:10:35;12.70;99.90
17851;DHT22;9051;51.548;14.348;2022-09-17T08:13:08;12.80;99.90
17851;DHT22;9051;51.548;14.348;2022-09-17T08:15:42;12.80;99.90
17851;DHT22;9051;51.548;14.348;2022-09-17T08:18:15;12.90;99.90
17851;DHT22;9051;51.548;14.348;2022-09-17T08:20:47;13.00;99.90
17851;DHT22;9051;51.548;14.348;2022-09-17T08:23:19;13.10;99.90
17851;DHT22;9051;51.548;14.348;2022-09-17T08:25:52;13.10;99.90
17851;DHT22;9051;51.548;14.348;2022-09-17T08:28:26;13.10;99.90
17851;DHT22;9051;51.548;14.348;2022-09-17T08:31:00;13.10;99.90
17851;DHT22;9051;51.548;14.348;2022-09-17T08:33:34;13.20;99.90
17851;DHT22;9051;51.548;14.348;2022-09-17T08:36:08;13.30;99.90
17851;DHT22;9051;51.548;14.348;2022-09-17T08:38:42;13.30;99.90
17851;DHT22;9051;51.548;14.348;2022-09-17T08:41:22;13.40;99.90
17851;DHT22;9051;51.548;14.348;2022-09-17T08:44:10;13.40;99.90
17851;DHT22;9051;51.548;14.348;2022-09-17T08:46:46;13.40;99.90
17851;DHT22;9051;51.548;14.348;2022-09-17T08:49:27;13.40;99.90
17851;DHT22;9051;51.548;14.348;2022-09-17T08:55:20;13.50;99.90
17851;DHT22;9051;51.548;14.348;2022-09-17T08:58:04;13.50;99.90
17851;DHT22;9051;51.548;14.348;2022-09-17T09:00:44;13.50;99.90
17851;DHT22;9051;51.548;14.348;2022-09-17T09:03:25;13.60;99.90
17851;DHT22;9051;51.548;14.348;2022-09-17T09:06:00;13.60;99.90
17851;DHT22;9051;51.548;14.348;2022-09-17T09:08:35;13.70;99.90
17851;DHT22;9051;51.548;14.348;2022-09-17T09:11:13;13.70;99.90
17851;DHT22;9051;51.548;14.348;2022-09-17T09:13:48;13.70;99.90
17851;DHT22;9051;51.548;14.348;2022-09-17T09:16:24;13.70;99.90
17851;DHT22;9051;51.548;14.348;2022-09-17T09:19:03;13.70;99.90
17851;DHT22;9051;51.548;14.348;2022-09-17T09:21:41;13.80;99.90
17851;DHT22;9051;51.548;14.348;2022-09-17T09:24:20;13.90;99.90
17851;DHT22;9051;51.548;14.348;2022-09-17T09:26:59;14.10;99.90
17851;DHT22;9051;51.548;14.348;2022-09-17T09:29:43;14.10;99.90
17851;DHT22;9051;51.548;14.348;2022-09-17T09:32:27;14.20;99.90
17851;DHT22;9051;51.548;14.348;2022-09-17T09:35:15;14.10;99.90
17851;DHT22;9051;51.548;14.348;2022-09-17T09:37:54;14.20;99.90
17851;DHT22;9051;51.548;14.348;2022-09-17T09:40:36;14.20;99.90
17851;DHT22;9051;51.548;14.348;2022-09-17T09:43:16;14.30;99.90
17851;DHT22;9051;51.548;14.348;2022-09-17T09:46:19;14.30;99.90
17851;DHT22;9051;51.548;14.348;2022-09-17T09:49:04;14.10;99.90
17851;DHT22;9051;51.548;14.348;2022-09-17T09:51:48;13.90;99.90
17851;DHT22;9051;51.548;14.348;2022-09-17T09:54:33;13.90;99.90
17851;DHT22;9051;51.548;14.348;2022-09-17T09:57:11;13.80;99.90
17851;DHT22;9051;51.548;14.348;2022-09-17T09:59:44;13.60;99.90
17851;DHT22;9051;51.548;14.348;2022-09-17T10:02:16;13.50;99.90
17851;DHT22;9051;51.548;14.348;2022-09-17T10:04:49;13.50;99.90
17851;DHT22;9051;51.548;14.348;2022-09-17T10:07:21;13.40;99.90
17851;DHT22;9051;51.548;14.348;2022-09-17T10:10:07;13.40;99.90
17851;DHT22;9051;51.548;14.348;2022-09-17T10:12:40;13.40;99.90
17851;DHT22;9051;51.548;14.348;2022-09-17T10:15:23;13.60;99.90
17851;DHT22;9051;51.548;14.348;2022-09-17T10:18:15;13.70;99.90
17851;DHT22;9051;51.548;14.348;2022-09-17T10:20:52;13.80;99.90
17851;DHT22;9051;51.548;14.348;2022-09-17T10:23:26;13.90;99.90
17851;DHT22;9051;51.548;14.348;2022-09-17T10:25:59;14.00;99.90
17851;DHT22;9051;51.548;14.348;2022-09-17T10:28:44;14.10;99.90
17851;DHT22;9051;51.548;14.348;2022-09-17T10:31:17;14.10;99.90
17851;DHT22;9051;51.548;14.348;2022-09-17T10:33:52;14.00;99.90
17851;DHT22;9051;51.548;14.348;2022-09-17T10:36:52;13.60;99.90
17851;DHT22;9051;51.548;14.348;2022-09-17T10:39:33;13.50;99.90
17851;DHT22;9051;51.548;14.348;2022-09-17T10:42:13;13.30;99.90
17851;DHT22;9051;51.548;14.348;2022-09-17T10:44:51;13.30;99.90
17851;DHT22;9051;51.548;14.348;2022-09-17T10:47:24;13.30;99.90
17851;DHT22;9051;51.548;14.348;2022-09-17T10:49:59;13.40;99.90
17851;DHT22;9051;51.548;14.348;2022-09-17T10:52:34;13.40;99.90
17851;DHT22;9051;51.548;14.348;2022-09-17T10:55:21;13.60;99.90
17851;DHT22;9051;51.548;14.348;2022-09-17T10:58:02;13.70;99.90
17851;DHT22;9051;51.548;14.348;2022-09-17T11:00:43;13.90;99.90
17851;DHT22;9051;51.548;14.348;2022-09-17T11:06:49;14.10;99.90
17851;DHT22;9051;51.548;14.348;2022-09-17T11:09:32;14.20;99.90
17851;DHT22;9051;51.548;14.348;2022-09-17T11:12:18;14.10;99.90
17851;DHT22;9051;51.548;14.348;2022-09-17T11:14:57;14.00;99.90
17851;DHT22;9051;51.548;14.348;2022-09-17T11:18:02;13.90;99.90
17851;DHT22;9051;51.548;14.348;2022-09-17T11:20:57;13.70;99.90
17851;DHT22;9051;51.548;14.348;2022-09-17T11:23:50;13.70;99.90
17851;DHT22;9051;51.548;14.348;2022-09-17T11:26:38;13.80;99.90
17851;DHT22;9051;51.548;14.348;2022-09-17T11:29:26;13.90;99.90
17851;DHT22;9051;51.548;14.348;2022-09-17T11:32:06;13.80;99.90
17851;DHT22;9051;51.548;14.348;2022-09-17T11:34:45;14.00;99.90
17851;DHT22;9051;51.548;14.348;2022-09-17T11:37:22;14.20;99.90
17851;DHT22;9051;51.548;14.348;2022-09-17T11:39:58;14.40;99.90
17851;DHT22;9051;51.548;14.348;2022-09-17T11:42:36;14.50;99.90
17851;DHT22;9051;51.548;14.348;2022-09-17T11:45:13;14.50;99.90
17851;DHT22;9051;51.548;14.348;2022-09-17T11:47:52;14.60;99.90
17851;DHT22;9051;51.548;14.348;2022-09-17T11:50:30;14.80;99.90
17851;DHT22;9051;51.548;14.348;2022-09-17T11:53:08;14.90;99.90
17851;DHT22;9051;51.548;14.348;2022-09-17T11:55:49;14.90;99.90
17851;DHT22;9051;51.548;14.348;2022-09-17T11:58:27;14.80;99.90
17851;DHT22;9051;51.548;14.348;2022-09-17T12:01:08;14.80;99.90
17851;DHT22;9051;51.548;14.348;2022-09-17T12:03:47;15.00;99.90
17851;DHT22;9051;51.548;14.348;2022-09-17T12:06:28;15.10;99.90
17851;DHT22;9051;51.548;14.348;2022-09-17T12:09:04;15.00;99.90
17851;DHT22;9051;51.548;14.348;2022-09-17T12:11:45;14.90;99.90
17851;DHT22;9051;51.548;14.348;2022-09-17T12:14:25;14.80;99.90
17851;DHT22;9051;51.548;14.348;2022-09-17T12:17:02;14.60;99.90
17851;DHT22;9051;51.548;14.348;2022-09-17T12:19:39;14.60;99.90
17851;DHT22;9051;51.548;14.348;2022-09-17T12:22:14;14.70;99.90
17851;DHT22;9051;51.548;14.348;2022-09-17T12:24:49;14.80;99.90
17851;DHT22;9051;51.548;14.348;2022-09-17T12:27:33;15.00;99.90
17851;DHT22;9051;51.548;14.348;2022-09-17T12:30:17;14.90;99.90
17851;DHT22;9051;51.548;14.348;2022-09-17T12:33:04;15.00;99.90
17851;DHT22;9051;51.548;14.348;2022-09-17T12:35:56;15.10;99.90
17851;DHT22;9051;51.548;14.348;2022-09-17T12:38:50;15.20;99.90
17851;DHT22;9051;51.548;14.348;2022-09-17T12:41:27;15.40;99.90
17851;DHT22;9051;51.548;14.348;2022-09-17T12:48:13;15.40;99.90
17851;DHT22;9051;51.548;14.348;2022-09-17T12:50:58;15.20;99.90
17851;DHT22;9051;51.548;14.348;2022-09-17T12:53:35;15.10;99.90
17851;DHT22;9051;51.548;14.348;2022-09-17T12:56:22;15.20;99.90
17851;DHT22;9051;51.548;14.348;2022-09-17T12:59:03;15.10;99.90
17851;DHT22;9051;51.548;14.348;2022-09-17T13:01:44;14.80;99.90
17851;DHT22;9051;51.548;14.348;2022-09-17T13:04:39;14.40;99.90
17851;DHT22;9051;51.548;14.348;2022-09-17T13:10:42;13.70;99.90
17851;DHT22;9051;51.548;14.348;2022-09-17T13:13:29;13.80;99.90
17851;DHT22;9051;51.548;14.348;2022-09-17T13:16:10;14.00;99.90
17851;DHT22;9051;51.548;14.348;2022-09-17T13:18:51;14.00;99.90
17851;DHT22;9051;51.548;14.348;2022-09-17T13:21:33;14.00;99.90
17851;DHT22;9051;51.548;14.348;2022-09-17T13:24:18;14.10;99.90
17851;DHT22;9051;51.548;14.348;2022-09-17T13:26:55;14.00;99.90
17851;DHT22;9051;51.548;14.348;2022-09-17T13:30:01;14.00;99.90
17851;DHT22;9051;51.548;14.348;2022-09-17T13:32:50;14.00;99.90
17851;DHT22;9051;51.548;14.348;2022-09-17T13:35:48;14.10;99.90
17851;DHT22;9051;51.548;14.348;2022-09-17T13:38:22;14.10;99.90
17851;DHT22;9051;51.548;14.348;2022-09-17T13:41:16;14.30;99.90
17851;DHT22;9051;51.548;14.348;2022-09-17T13:43:49;14.30;99.90
17851;DHT22;9051;51.548;14.348;2022-09-17T13:46:26;13.80;99.90
17851;DHT22;9051;51.548;14.348;2022-09-17T13:49:00;13.30;99.90
17851;DHT22;9051;51.548;14.348;2022-09-17T13:51:52;12.70;99.90
17851;DHT22;9051;51.548;14.348;2022-09-17T13:54:36;12.50;99.90
17851;DHT22;9051;51.548;14.348;2022-09-17T13:57:11;12.30;99.90
17851;DHT22;9051;51.548;14.348;2022-09-17T13:59:56;12.40;99.90
17851;DHT22;9051;51.548;14.348;2022-09-17T14:02:33;12.70;99.90
17851;DHT22;9051;51.548;14.348;2022-09-17T14:05:33;12.90;99.90
17851;DHT22;9051;51.548;14.348;2022-09-17T14:08:30;13.00;99.90
17851;DHT22;9051;51.548;14.348;2022-09-17T14:11:35;13.30;99.90
17851;DHT22;9051;51.548;14.348;2022-09-17T14:17:49;14.00;99.90
17851;DHT22;9051;51.548;14.348;2022-09-17T14:20:23;14.30;99.90
17851;DHT22;9051;51.548;14.348;2022-09-17T14:22:57;14.40;99.90
17851;DHT22;9051;51.548;14.348;2022-09-17T14:25:35;14.30;99.90
17851;DHT22;9051;51.548;14.348;2022-09-17T14:28:15;14.40;99.90
17851;DHT22;9051;51.548;14.348;2022-09-17T14:30:49;14.80;99.90
17851;DHT22;9051;51.548;14.348;2022-09-17T14:33:25;15.00;99.90
17851;DHT22;9051;51.548;14.348;2022-09-17T14:36:00;15.30;99.90
17851;DHT22;9051;51.548;14.348;2022-09-17T14:38:42;15.30;99.90
17851;DHT22;9051;51.548;14.348;2022-09-17T14:41:19;15.50;99.90
17851;DHT22;9051;51.548;14.348;2022-09-17T14:43:55;15.60;99.90
17851;DHT22;9051;51.548;14.348;2022-09-17T14:46:30;15.60;99.90
17851;DHT22;9051;51.548;14.348;2022-09-17T14:49:13;15.60;99.90
17851;DHT22;9051;51.548;14.348;2022-09-17T14:51:46;15.60;99.90
17851;DHT22;9051;51.548;14.348;2022-09-17T14:54:21;15.60;99.90
17851;DHT22;9051;51.548;14.348;2022-09-17T14:56:59;15.50;99.90
17851;DHT22;9051;51.548;14.348;2022-09-17T14:59:41;15.60;99.90
17851;DHT22;9051;51.548;14.348;2022-09-17T15:02:28;15.60;99.90
17851;DHT22;9051;51.548;14.348;2022-09-17T15:05:01;15.40;99.90
17851;DHT22;9051;51.548;14.348;2022-09-17T15:07:33;15.40;99.90
17851;DHT22;9051;51.548;14.348;2022-09-17T15:10:07;15.50;99.90
17851;DHT22;9051;51.548;14.348;2022-09-17T15:12:39;15.50;99.90
17851;DHT22;9051;51.548;14.348;2022-09-17T15:15:19;15.60;99.90
17851;DHT22;9051;51.548;14.348;2022-09-17T15:17:52;15.90;99.90
17851;DHT22;9051;51.548;14.348;2022-09-17T15:20:28;16.00;99.90
17851;DHT22;9051;51.548;14.348;2022-09-17T15:23:09;16.00;99.90
17851;DHT22;9051;51.548;14.348;2022-09-17T15:25:45;16.00;99.90
17851;DHT22;9051;51.548;14.348;2022-09-17T15:28:26;16.10;99.90
17851;DHT22;9051;51.548;14.348;2022-09-17T15:31:02;16.10;99.90
17851;DHT22;9051;51.548;14.348;2022-09-17T15:33:36;16.10;99.90
17851;DHT22;9051;51.548;14.348;2022-09-17T15:36:17;16.20;99.90
17851;DHT22;9051;51.548;14.348;2022-09-17T15:38:52;16.00;99.90
17851;DHT22;9051;51.548;14.348;2022-09-17T15:41:30;16.00;99.90
17851;DHT22;9051;51.548;14.348;2022-09-17T15:44:12;16.00;99.90
17851;DHT22;9051;51.548;14.348;2022-09-17T15:46:48;16.00;99.90
17851;DHT22;9051;51.548;14.348;2022-09-17T15:49:27;15.80;99.90
17851;DHT22;9051;51.548;14.348;2022-09-17T15:52:27;15.60;99.90
17851;DHT22;9051;51.548;14.348;2022-09-17T15:55:03;15.40;99.90
17851;DHT22;9051;51.548;14.348;2022-09-17T15:57:35;15.30;99.90
17851;DHT22;9051;51.548;14.348;2022-09-17T16:00:13;15.10;99.90
17851;DHT22;9051;51.548;14.348;2022-09-17T16:02:46;15.10;99.90
17851;DHT22;9051;51.548;14.348;2022-09-17T16:05:49;15.10;99.90
17851;DHT22;9051;51.548;14.348;2022-09-17T16:08:23;15.10;99.90
17851;DHT22;9051;51.548;14.348;2022-09-17T16:10:55;15.00;99.90
17851;DHT22;9051;51.548;14.348;2022-09-17T16:13:27;15.00;99.90
17851;DHT22;9051;51.548;14.348;2022-09-17T16:15:59;15.00;99.90
17851;DHT22;9051;51.548;14.348;2022-09-17T16:18:33;14.90;99.90
17851;DHT22;9051;51.548;14.348;2022-09-17T16:21:06;15.00;99.90
17851;DHT22;9051;51.548;14.348;2022-09-17T16:23:38;15.00;99.90
17851;DHT22;9051;51.548;14.348;2022-09-17T16:26:13;15.00;99.90
17851;DHT22;9051;51.548;14.348;2022-09-17T16:28:49;15.00;99.90
17851;DHT22;9051;51.548;14.348;2022-09-17T16:31:23;14.90;99.90
17851;DHT22;9051;51.548;14.348;2022-09-17T16:33:57;15.00;99.90
17851;DHT22;9051;51.548;14.348;2022-09-17T16:36:29;14.90;99.90
17851;DHT22;9051;51.548;14.348;2022-09-17T16:39:02;14.90;99.90
17851;DHT22;9051;51.548;14.348;2022-09-17T16:41:35;14.80;99.90
17851;DHT22;9051;51.548;14.348;2022-09-17T16:44:08;14.80;99.90
17851;DHT22;9051;51.548;14.348;2022-09-17T16:46:40;14.70;99.90
17851;DHT22;9051;51.548;14.348;2022-09-17T16:49:14;14.70;99.90
17851;DHT22;9051;51.548;14.348;2022-09-17T16:51:47;14.70;99.90
17851;DHT22;9051;51.548;14.348;2022-09-17T16:54:19;14.60;99.90
17851;DHT22;9051;51.548;14.348;2022-09-17T16:56:51;14.60;99.90
17851;DHT22;9051;51.548;14.348;2022-09-17T16:59:23;14.60;99.90
17851;DHT22;9051;51.548;14.348;2022-09-17T17:01:56;14.50;99.90
17851;DHT22;9051;51.548;14.348;2022-09-17T17:04:32;14.50;99.90